Doerun, GA

2:52 AM EDT on September 21, 2014 (GMT -0400)
City of Moultrie Service Center | Change Station
CLOSE
Current Station
Personal Weather Station
Location: Moultrie, GA
Elevation: 299 ft
Nearby Weather Stations

Elev 299 ft 31.19 °N, 83.79 °W | Updated 10 minutes ago

Clear
Clear
66.3 °F
Feels Like 66.3 °F
N
0.0
Wind Variable Wind from South
Gusts 0.0 mph

Today
High -- | Low -- °F
--% Chance of Precip.
Yesterday
High -- | Low -- °F
Precip. -- in
7:23 AM 7:33 PM
Waning Crescent, 8% visible
Pressure 29.98 in
Visibility 10.0 miles
Clouds Clear
Dew Point 64 °F
Humidity 93%
Rainfall 0.00 in
Snow Depth Not available.
UV 0 out of 12
Pollen 7.80 out of 12
Air Quality Not available.
Flu Activity Not available.
METAR KMGR 210615Z AUTO 00000KT 10SM CLR 19/18 A2998 RMK AO2

More Conditions Fewer Conditions

Pressure 29.98 in
Visibility 10.0 miles
Clouds Clear
Dew Point 64 °F
Humidity 93%
Rainfall 0.00 in
Snow Depth Not available.
UV 0 out of 12
Pollen 7.80 out of 12
Air Quality Not available.
Flu Activity Not available.
METAR KMGR 210615Z AUTO 00000KT 10SM CLR 19/18 A2998 RMK AO2

More Conditions Fewer Conditions

10-Day Weather Forecast

Almanac

Astronomy

Sep. 21, 2014 Rise Set
Actual Time 7:23 AM EDT 7:33 PM EDT
Civil Twilight 6:59 AM EDT 7:57 PM EDT
Nautical Twilight 6:30 AM EDT 8:26 PM EDT
Astronomical Twilight 6:02 AM EDT 8:54 PM EDT
Moon 5:03 AM EDT 6:03 PM EDT
Length of Visible Light 12h 58m
Length of Day
12h 10m
Tomorrow will be 1m 53s shorter.
Waning Crescent, 8% of the Moon is Illuminated
Today
Waning Crescent
Sep 24
New
Oct 1
First Quarter
Oct 8
Full
Oct 15
Last Quarter

Today's Extremes

State Highs State Lows

Community

WunderPhotos

Upload Photos

1,755,098 photos uploaded!

Nearby

Snow Depth

Station Depth Elevation
No new snow has been reported.

Earthquake Activity

City Distance Mag. Time & Date
No recent earthquake activity has been reported nearby.
Minimum magnitude displayed is 2.5.

Coastal Water Temperatures

Place Temperature
No Stations Reporting

Nearby Weather Stations